Time;durP1;ratioP1;P1;durP2;ratioP2;P2;SDS_P1;SDS_P2;PMS_P1;PMS_P2;Temp;Humidity;BMP_temperature;BMP_pressure;BME280_temperature;BME280_humidity;BME280_pressure;Samples;Min_cycle;Max_cycle;Signal;HPM_P1;HPM_P2
2022/07/06 00:02:15;;;;;;;1.93;0.90;;;;;;;23.33;39.32;100967.16;4993107;28;20406;-73
2022/07/06 00:04:40;;;;;;;1.30;1.20;;;;;;;23.25;39.68;100967.91;5004637;28;20432;-73
2022/07/06 00:07:06;;;;;;;1.87;0.90;;;;;;;23.28;39.76;100970.09;5031515;28;20395;-73
2022/07/06 00:09:32;;;;;;;1.90;0.90;;;;;;;23.25;39.88;100965.97;5020629;28;20422;-73
2022/07/06 00:11:58;;;;;;;1.65;0.90;;;;;;;23.19;40.19;100969.19;5026314;28;20410;-73
2022/07/06 00:14:23;;;;;;;1.50;0.70;;;;;;;23.21;39.81;100964.19;5003062;28;20449;-73
2022/07/06 00:16:49;;;;;;;2.50;1.37;;;;;;;23.06;40.16;100972.84;5007759;28;20446;-73
2022/07/06 00:19:14;;;;;;;1.55;1.10;;;;;;;23.13;40.22;100974.06;5012228;28;20442;-73
2022/07/06 00:21:39;;;;;;;3.40;1.20;;;;;;;23.15;40.37;100974.53;5037286;28;20395;-73
2022/07/06 00:24:04;;;;;;;2.70;0.80;;;;;;;23.17;40.40;100972.28;5021584;28;20421;-73
2022/07/06 00:26:30;;;;;;;2.80;0.97;;;;;;;23.14;40.30;100978.47;5023573;28;20457;-73
2022/07/06 00:28:55;;;;;;;1.97;0.90;;;;;;;23.11;40.71;100979.09;5021212;28;20407;-73
2022/07/06 00:31:20;;;;;;;2.13;1.07;;;;;;;23.02;40.68;100980.97;5025992;28;20898;-73
2022/07/06 00:33:46;;;;;;;1.30;0.90;;;;;;;23.06;40.99;100987.50;5002209;28;20425;-73
2022/07/06 00:36:11;;;;;;;1.10;1.00;;;;;;;23.11;40.95;100983.81;5055643;28;21055;-73
2022/07/06 00:38:36;;;;;;;1.60;1.00;;;;;;;23.12;40.96;100986.22;5017837;28;20415;-73
2022/07/06 00:41:02;;;;;;;3.00;1.27;;;;;;;23.13;41.24;100987.06;5020959;28;20500;-73
2022/07/06 00:43:27;;;;;;;3.10;1.33;;;;;;;23.10;40.90;100988.50;5020954;28;20424;-73
2022/07/06 00:45:52;;;;;;;1.10;0.97;;;;;;;23.06;41.26;100995.78;5002596;28;20947;-73
2022/07/06 00:48:17;;;;;;;4.40;1.20;;;;;;;23.04;41.20;100989.78;5018896;28;20429;-73
2022/07/06 00:50:43;;;;;;;2.50;1.50;;;;;;;23.04;41.55;100997.25;5021452;28;20454;-73
2022/07/06 00:53:09;;;;;;;1.57;1.30;;;;;;;23.01;41.61;100993.16;5022772;28;20424;-73
2022/07/06 00:55:39;;;;;;;3.92;1.17;;;;;;;22.99;41.73;100991.84;5010779;28;20493;-73
2022/07/06 00:58:04;;;;;;;1.30;1.20;;;;;;;22.91;41.73;100985.13;5006734;28;20899;-73
2022/07/06 01:00:30;;;;;;;1.80;1.10;;;;;;;22.92;41.91;100986.75;5007020;28;20411;-73
2022/07/06 01:02:56;;;;;;;1.73;1.30;;;;;;;22.92;41.81;100985.94;5005095;28;20412;-73
2022/07/06 01:05:22;;;;;;;2.37;1.03;;;;;;;22.83;42.03;100987.81;5011686;28;20533;-73
2022/07/06 01:07:48;;;;;;;3.38;1.50;;;;;;;22.82;42.37;100983.44;5022061;28;20507;-73
2022/07/06 01:10:16;;;;;;;1.90;1.30;;;;;;;22.83;42.35;100993.34;5021436;28;20417;-72
2022/07/06 01:12:43;;;;;;;3.35;1.30;;;;;;;22.79;42.58;100981.31;5011808;28;20916;-73
2022/07/06 01:15:15;;;;;;;1.88;1.25;;;;;;;22.79;42.74;100984.06;5003598;28;20917;-73
2022/07/06 01:17:41;;;;;;;4.45;1.15;;;;;;;22.78;42.64;100983.25;5013486;28;20452;-73
2022/07/06 01:20:11;;;;;;;1.83;1.50;;;;;;;22.77;42.60;100984.38;5005264;28;20411;-73
2022/07/06 01:22:37;;;;;;;2.63;1.02;;;;;;;22.74;42.76;100974.75;5027085;28;20419;-73
2022/07/06 01:25:03;;;;;;;1.57;1.03;;;;;;;22.64;43.06;100972.22;5036183;28;21096;-73
2022/07/06 01:27:29;;;;;;;1.77;1.30;;;;;;;22.59;43.11;100969.56;5025088;28;20394;-73
2022/07/06 01:29:54;;;;;;;2.55;1.50;;;;;;;22.57;43.27;100965.47;5001705;28;20410;-73
2022/07/06 01:32:19;;;;;;;2.73;1.17;;;;;;;22.54;43.27;100966.94;5003821;28;20429;-73
2022/07/06 01:34:45;;;;;;;2.73;1.30;;;;;;;22.49;43.36;100978.06;5005778;28;20409;-73
2022/07/06 01:37:10;;;;;;;1.20;1.10;;;;;;;22.44;43.63;100969.94;5010386;28;20419;-73
2022/07/06 01:39:35;;;;;;;3.13;1.10;;;;;;;22.45;43.66;100968.00;5014084;28;20439;-73
2022/07/06 01:42:01;;;;;;;1.52;1.17;;;;;;;22.48;43.52;100965.41;5025032;28;20436;-73
2022/07/06 01:44:26;;;;;;;1.77;1.23;;;;;;;22.40;43.54;100968.91;5006826;28;21016;-73
2022/07/06 01:46:51;;;;;;;2.70;1.37;;;;;;;22.39;44.07;100972.00;5024833;28;20933;-73
2022/07/06 01:49:16;;;;;;;3.07;1.10;;;;;;;22.37;43.84;100971.47;5020660;28;20925;-73
2022/07/06 01:51:42;;;;;;;1.60;1.27;;;;;;;22.33;43.99;100970.50;5029753;28;20407;-73
2022/07/06 01:54:07;;;;;;;1.93;1.20;;;;;;;22.30;44.08;100971.06;5022236;28;20420;-73
2022/07/06 01:56:32;;;;;;;1.03;1.03;;;;;;;22.24;43.92;100973.97;5014424;28;20420;-73
2022/07/06 01:58:58;;;;;;;1.60;1.17;;;;;;;22.22;44.21;100979.00;5018128;28;20422;-73
2022/07/06 02:01:23;;;;;;;2.50;1.37;;;;;;;22.26;44.09;100986.66;5021565;28;20415;-73
2022/07/06 02:03:48;;;;;;;4.70;1.40;;;;;;;22.29;43.99;100983.28;5022354;28;20419;-73
2022/07/06 02:06:14;;;;;;;2.10;1.40;;;;;;;22.27;44.18;100988.25;5007978;28;20753;-73
2022/07/06 02:08:41;;;;;;;1.27;1.10;;;;;;;22.24;44.26;100989.72;5020034;28;20768;-73
2022/07/06 02:11:07;;;;;;;1.25;1.15;;;;;;;22.16;44.37;100982.97;5007349;28;20756;-73
2022/07/06 02:13:33;;;;;;;2.17;1.13;;;;;;;22.09;44.53;100981.78;5013191;28;20415;-73
2022/07/06 02:15:59;;;;;;;1.88;1.30;;;;;;;22.10;44.59;100975.09;5029175;28;20387;-73
2022/07/06 02:18:24;;;;;;;1.27;1.17;;;;;;;22.06;44.44;100980.44;5019525;28;20405;-73
2022/07/06 02:20:49;;;;;;;1.37;1.20;;;;;;;22.00;44.40;100980.84;5013063;28;20406;-73
2022/07/06 02:23:15;;;;;;;2.20;1.25;;;;;;;21.89;44.70;100982.16;5028455;28;20406;-73
2022/07/06 02:25:40;;;;;;;8.57;1.60;;;;;;;21.84;44.91;100980.31;5031369;28;20399;-73
2022/07/06 02:28:05;;;;;;;2.40;1.20;;;;;;;21.81;45.04;100978.19;5021669;28;20534;-73
2022/07/06 02:30:31;;;;;;;2.87;1.17;;;;;;;21.79;45.23;100980.44;5013960;28;20801;-73
2022/07/06 02:32:56;;;;;;;1.20;1.10;;;;;;;21.80;45.32;100975.75;5012462;28;20416;-73
2022/07/06 02:35:21;;;;;;;4.50;1.38;;;;;;;21.86;45.31;100982.78;5018091;28;20766;-73
2022/07/06 02:37:46;;;;;;;4.87;1.50;;;;;;;21.86;45.47;100986.38;5012255;28;20792;-73
2022/07/06 02:40:12;;;;;;;3.20;1.70;;;;;;;21.85;45.44;100990.25;5009176;28;20493;-73
2022/07/06 02:42:38;;;;;;;4.20;1.70;;;;;;;21.80;45.86;100992.28;5032065;28;20444;-73
2022/07/06 02:45:05;;;;;;;2.45;1.40;;;;;;;21.65;46.00;100991.47;5025393;28;20758;-73
2022/07/06 02:47:30;;;;;;;5.50;1.83;;;;;;;21.52;46.36;100994.19;5031101;28;20413;-73
2022/07/06 02:49:55;;;;;;;3.33;1.53;;;;;;;21.39;46.72;101001.34;5018994;28;20404;-73
2022/07/06 02:52:21;;;;;;;2.37;1.50;;;;;;;21.32;46.93;101003.66;5033103;28;20391;-73
2022/07/06 02:54:46;;;;;;;1.47;1.30;;;;;;;21.15;47.37;101001.47;5009768;28;20438;-73
2022/07/06 02:57:12;;;;;;;1.55;1.40;;;;;;;21.00;47.92;101010.00;5010121;28;20419;-73
2022/07/06 02:59:37;;;;;;;2.53;1.43;;;;;;;20.98;48.08;101011.38;5011435;28;20412;-73
2022/07/06 03:02:04;;;;;;;1.83;1.20;;;;;;;21.02;47.88;101010.50;5018062;28;20989;-73
2022/07/06 03:04:29;;;;;;;2.25;1.30;;;;;;;21.05;47.84;101007.13;5018847;28;20921;-73
2022/07/06 03:06:54;;;;;;;3.13;2.00;;;;;;;21.01;47.95;101013.56;5033664;28;20407;-73
2022/07/06 03:09:20;;;;;;;2.00;1.70;;;;;;;20.91;48.15;101017.28;5005482;28;20490;-73
2022/07/06 03:11:45;;;;;;;1.60;1.37;;;;;;;20.88;48.42;101014.34;5008980;28;20407;-73
2022/07/06 03:14:10;;;;;;;2.70;1.53;;;;;;;20.90;48.32;101026.69;5010192;28;20466;-73
2022/07/06 03:16:35;;;;;;;2.57;1.70;;;;;;;20.92;48.34;101029.13;5015307;28;20426;-73
2022/07/06 03:19:01;;;;;;;3.03;1.50;;;;;;;20.87;48.41;101019.03;5015605;28;20444;-73
2022/07/06 03:21:26;;;;;;;2.77;1.83;;;;;;;20.85;48.53;101023.16;5023854;28;20429;-73
2022/07/06 03:23:51;;;;;;;3.07;1.70;;;;;;;20.80;48.80;101031.53;5022567;28;20414;-73
2022/07/06 03:26:17;;;;;;;1.50;1.40;;;;;;;20.81;48.75;101035.94;5016397;28;20505;-73
2022/07/06 03:28:42;;;;;;;1.57;1.47;;;;;;;20.75;48.91;101032.41;5007306;28;20412;-73
2022/07/06 03:31:07;;;;;;;4.50;1.52;;;;;;;20.69;49.08;101036.38;5024812;28;20401;-73
2022/07/06 03:33:32;;;;;;;5.93;1.57;;;;;;;20.64;49.24;101034.53;5002560;28;20422;-73
2022/07/06 03:35:58;;;;;;;2.37;1.37;;;;;;;20.62;49.16;101036.72;5000087;28;20513;-73
2022/07/06 03:38:23;;;;;;;1.77;1.60;;;;;;;20.57;49.45;101031.31;4998780;28;20422;-73
2022/07/06 03:40:48;;;;;;;5.30;1.53;;;;;;;20.49;49.47;101033.91;5043703;28;20424;-73
2022/07/06 03:43:14;;;;;;;3.97;1.30;;;;;;;20.45;49.66;101036.41;5012139;28;20417;-73
2022/07/06 03:45:39;;;;;;;2.20;1.35;;;;;;;20.46;49.50;101026.22;5048134;28;20391;-73
2022/07/06 03:48:05;;;;;;;2.13;1.60;;;;;;;20.48;49.62;101027.56;5021209;28;20412;-73
2022/07/06 03:50:30;;;;;;;1.60;1.50;;;;;;;20.55;49.52;101028.03;5016390;28;20424;-73
2022/07/06 03:52:55;;;;;;;2.58;1.63;;;;;;;20.62;49.30;101033.97;5005313;28;20413;-73
2022/07/06 03:55:21;;;;;;;1.90;1.27;;;;;;;20.65;48.99;101032.56;5008039;28;20889;-73
2022/07/06 03:57:46;;;;;;;3.03;1.43;;;;;;;20.68;48.96;101035.53;5005371;28;20427;-73
2022/07/06 04:00:12;;;;;;;2.53;1.57;;;;;;;20.61;49.26;101046.09;5023111;28;20905;-73
2022/07/06 04:02:37;;;;;;;5.22;1.48;;;;;;;20.56;49.37;101037.09;5023779;28;20424;-73
2022/07/06 04:05:03;;;;;;;2.07;1.23;;;;;;;20.50;49.67;101043.81;5015333;28;20419;-73
2022/07/06 04:07:28;;;;;;;2.10;1.20;;;;;;;20.43;49.85;101041.41;5006486;28;20415;-73
2022/07/06 04:09:53;;;;;;;2.53;1.42;;;;;;;20.42;49.81;101037.00;5015964;28;20403;-73
2022/07/06 04:12:18;;;;;;;1.93;1.47;;;;;;;20.43;49.91;101046.94;5010026;28;20500;-73
2022/07/06 04:14:44;;;;;;;2.33;1.97;;;;;;;20.47;49.88;101042.47;5009889;28;20418;-73
2022/07/06 04:19:53;;;;;;;3.38;1.40;;;;;;;20.56;49.91;101050.88;5001188;28;20823;-73
2022/07/06 04:22:18;;;;;;;2.93;1.50;;;;;;;20.62;50.01;101050.50;5004781;28;20418;-73
2022/07/06 04:24:44;;;;;;;1.93;1.50;;;;;;;20.70;49.72;101047.09;5008463;28;20851;-73
2022/07/06 04:27:09;;;;;;;3.77;1.70;;;;;;;20.69;49.71;101056.47;5023788;28;20401;-73
2022/07/06 04:29:34;;;;;;;2.33;1.30;;;;;;;20.66;49.88;101070.84;4999393;28;20442;-73
2022/07/06 04:32:00;;;;;;;2.57;1.60;;;;;;;20.64;49.91;101058.47;4998726;28;20448;-73
2022/07/06 04:34:25;;;;;;;3.50;1.40;;;;;;;20.67;49.89;101061.47;5005616;28;20418;-73
2022/07/06 04:36:50;;;;;;;7.10;1.50;;;;;;;20.71;49.70;101067.19;5014797;28;20425;-73
2022/07/06 04:39:15;;;;;;;2.00;1.40;;;;;;;20.75;49.63;101059.16;5009600;28;20542;-73
2022/07/06 04:41:41;;;;;;;2.20;1.60;;;;;;;20.73;49.94;101058.63;5014602;28;20397;-73
2022/07/06 04:44:06;;;;;;;2.17;1.37;;;;;;;20.76;49.94;101056.09;5002447;28;20898;-73
2022/07/06 04:46:31;;;;;;;2.50;1.80;;;;;;;20.77;50.07;101067.94;5008456;28;20422;-73
2022/07/06 04:48:56;;;;;;;1.42;1.30;;;;;;;20.79;49.92;101072.03;5006440;28;20571;-73
2022/07/06 04:51:22;;;;;;;1.97;1.30;;;;;;;20.80;49.64;101068.16;5000819;28;20432;-73
2022/07/06 04:53:47;;;;;;;3.37;1.40;;;;;;;20.75;49.32;101070.97;5024314;28;20485;-73
2022/07/06 04:56:12;;;;;;;2.60;1.27;;;;;;;20.65;49.17;101076.63;5027732;28;20399;-73
2022/07/06 04:58:38;;;;;;;3.90;1.50;;;;;;;20.68;48.89;101071.34;5024459;28;20399;-73
2022/07/06 05:01:03;;;;;;;4.57;1.70;;;;;;;20.70;48.81;101073.81;5008476;28;20483;-73
2022/07/06 05:03:28;;;;;;;1.83;1.20;;;;;;;20.69;48.68;101078.50;5022754;28;20868;-73
2022/07/06 05:05:54;;;;;;;2.57;1.30;;;;;;;20.77;48.50;101070.69;5017042;28;20855;-73
2022/07/06 05:08:19;;;;;;;4.80;1.30;;;;;;;20.71;48.48;101069.94;5017544;28;20907;-73
2022/07/06 05:10:45;;;;;;;1.80;0.83;;;;;;;20.79;48.33;101082.22;5016456;28;20417;-73
2022/07/06 05:13:10;;;;;;;3.90;1.20;;;;;;;20.82;47.94;101078.88;5008642;28;20420;-73
2022/07/06 05:15:36;;;;;;;2.93;1.40;;;;;;;20.78;48.01;101081.38;5026308;28;20525;-73
2022/07/06 05:18:01;;;;;;;1.88;1.40;;;;;;;20.83;47.92;101086.03;5014690;28;20414;-73
2022/07/06 05:20:26;;;;;;;2.27;1.00;;;;;;;20.79;47.82;101079.47;5012882;28;20867;-75
2022/07/06 05:22:52;;;;;;;3.37;1.57;;;;;;;20.82;47.48;101079.69;5000938;28;20404;-75
2022/07/06 05:25:17;;;;;;;1.10;0.80;;;;;;;20.81;47.55;101080.00;5014176;28;20500;-73
2022/07/06 05:27:42;;;;;;;2.97;1.20;;;;;;;20.79;47.69;101076.72;5000254;28;20443;-73
2022/07/06 05:30:08;;;;;;;1.30;0.90;;;;;;;20.85;47.44;101083.78;5003812;28;20768;-73
2022/07/06 05:32:34;;;;;;;1.63;1.30;;;;;;;20.84;47.38;101084.91;5013704;28;20419;-73
2022/07/06 05:34:59;;;;;;;2.25;1.27;;;;;;;20.85;47.10;101090.09;5026697;28;20473;-73
2022/07/06 05:37:24;;;;;;;4.80;1.30;;;;;;;20.80;47.00;101084.69;5028969;28;20443;-73
2022/07/06 05:39:50;;;;;;;2.10;1.10;;;;;;;20.76;47.25;101094.66;5022930;28;20409;-73
2022/07/06 05:42:15;;;;;;;3.20;1.10;;;;;;;20.82;46.90;101104.47;5016888;28;20406;-73
2022/07/06 05:44:41;;;;;;;3.87;1.30;;;;;;;20.84;46.65;101096.75;5020067;28;20878;-73
2022/07/06 05:53:02;;;;;;;4.53;1.23;;;;;;;20.79;47.20;101093.22;4965158;28;20563;-73
2022/07/06 05:55:27;;;;;;;7.65;1.10;;;;;;;20.79;47.20;101098.75;5005716;28;20401;-73
2022/07/06 05:57:53;;;;;;;2.30;1.00;;;;;;;20.86;47.29;101094.50;5012647;28;20515;-73
2022/07/06 06:00:20;;;;;;;2.33;1.25;;;;;;;20.95;46.93;101092.72;5015507;28;20404;-74
2022/07/06 06:02:45;;;;;;;1.70;1.00;;;;;;;20.90;46.79;101105.75;5017161;28;20822;-74
2022/07/06 06:05:12;;;;;;;3.17;1.57;;;;;;;20.79;47.20;101098.75;5024034;28;20398;-74
2022/07/06 06:07:38;;;;;;;3.53;1.33;;;;;;;20.91;47.09;101104.66;5005898;28;20406;-73
2022/07/06 06:10:11;;;;;;;3.93;1.20;;;;;;;21.02;46.90;101106.13;5016153;28;20383;-73
2022/07/06 06:12:37;;;;;;;3.57;1.30;;;;;;;21.09;46.78;101107.41;5018355;28;20498;-73
2022/07/06 06:15:03;;;;;;;1.98;1.13;;;;;;;21.19;46.64;101106.44;5014969;28;20458;-73
2022/07/06 06:17:29;;;;;;;1.47;1.03;;;;;;;21.20;46.58;101106.16;5013553;28;20973;-73
2022/07/06 06:19:54;;;;;;;1.05;0.90;;;;;;;21.20;46.49;101105.31;5011258;28;20444;-72
2022/07/06 06:22:20;;;;;;;4.20;1.40;;;;;;;21.16;46.80;101112.56;5006290;28;20794;-72
2022/07/06 06:24:45;;;;;;;2.30;1.07;;;;;;;21.17;46.58;101115.00;5022022;28;20415;-73
2022/07/06 06:27:11;;;;;;;4.30;1.23;;;;;;;21.18;46.77;101110.31;5007289;28;20403;-73
2022/07/06 06:29:36;;;;;;;2.08;1.15;;;;;;;21.27;46.87;101116.81;5009751;28;20413;-73
2022/07/06 06:32:02;;;;;;;2.83;1.50;;;;;;;21.36;46.85;101116.94;5017158;28;20420;-73
2022/07/06 06:34:27;;;;;;;8.55;1.40;;;;;;;21.39;46.48;101114.38;5017555;28;20425;-73
2022/07/06 06:36:52;;;;;;;2.13;1.20;;;;;;;21.40;46.47;101116.03;5020147;28;20780;-73
2022/07/06 13:36:40;;;;;;;1.10;0.50;;;;;;;32.13;24.41;101027.00;5101730;27;20361;-77
2022/07/06 13:39:06;;;;;;;1.63;0.95;;;;;;;32.69;23.51;101021.44;5051641;28;20436;-73
2022/07/06 13:41:32;;;;;;;1.60;0.65;;;;;;;32.96;23.05;101031.41;5058235;28;20413;-73
2022/07/06 13:44:00;;;;;;;1.02;0.55;;;;;;;32.56;23.17;101022.81;5057106;28;20415;-74
2022/07/06 13:46:26;;;;;;;2.55;0.70;;;;;;;32.50;23.58;101019.56;5060064;28;20470;-74
2022/07/06 13:48:52;;;;;;;0.82;0.65;;;;;;;32.46;23.15;101021.50;5075266;28;20413;-73
2022/07/06 13:51:17;;;;;;;0.80;0.50;;;;;;;32.63;23.33;101015.34;5074717;28;20407;-72
2022/07/06 13:53:42;;;;;;;0.63;0.38;;;;;;;32.32;23.48;101013.66;5076456;28;20393;-72
2022/07/06 13:56:08;;;;;;;0.50;0.40;;;;;;;31.74;23.99;101015.13;5080489;28;20500;-72
2022/07/06 13:58:33;;;;;;;1.30;0.50;;;;;;;31.19;25.09;101006.06;5068760;28;20463;-72
2022/07/06 14:00:59;;;;;;;0.98;0.50;;;;;;;31.14;25.15;101013.97;5083048;28;20398;-71
2022/07/06 14:03:29;;;;;;;0.63;0.63;;;;;;;31.00;24.92;101008.09;5078273;28;20412;-72
2022/07/06 14:05:54;;;;;;;0.70;0.30;;;;;;;30.78;24.98;101002.03;5077156;28;20437;-72
2022/07/06 14:08:20;;;;;;;1.30;0.50;;;;;;;30.36;25.12;100996.28;5061441;28;20815;-72
2022/07/06 14:10:45;;;;;;;0.40;0.40;;;;;;;30.63;24.93;100986.13;5072393;28;20402;-72
2022/07/06 14:13:11;;;;;;;2.53;0.50;;;;;;;31.27;24.84;100985.44;5075132;28;21070;-72
2022/07/06 14:15:36;;;;;;;3.90;0.50;;;;;;;31.67;24.22;100990.59;5078155;28;20411;-72
2022/07/06 14:18:01;;;;;;;0.50;0.50;;;;;;;31.75;23.57;100988.69;5078130;28;20412;-72
2022/07/06 14:20:26;;;;;;;0.53;0.30;;;;;;;31.84;23.24;100987.28;5083552;28;20392;-72
2022/07/06 14:22:52;;;;;;;2.77;0.47;;;;;;;32.17;23.04;100991.41;5072179;28;20898;-72
2022/07/06 14:25:17;;;;;;;0.40;0.40;;;;;;;32.07;22.99;100990.06;5087615;28;20440;-72
2022/07/06 14:27:43;;;;;;;2.00;0.60;;;;;;;32.28;22.51;100987.56;5074439;28;20409;-72
2022/07/06 14:30:09;;;;;;;0.60;0.50;;;;;;;32.46;22.17;100987.81;5082033;28;20463;-72
2022/07/06 14:32:34;;;;;;;1.60;0.30;;;;;;;32.31;22.15;100991.59;5070445;28;20406;-72
2022/07/06 14:34:59;;;;;;;1.30;0.67;;;;;;;32.29;22.05;100991.19;5084275;28;20426;-72
2022/07/06 14:37:25;;;;;;;1.00;0.60;;;;;;;32.38;22.04;100992.50;5095618;28;20399;-72
2022/07/06 14:39:50;;;;;;;2.70;0.57;;;;;;;32.34;22.13;100988.84;5103434;28;20745;-72
2022/07/06 14:42:15;;;;;;;0.50;0.40;;;;;;;32.19;22.14;100978.63;5091269;28;20469;-72
2022/07/06 14:44:41;;;;;;;0.80;0.40;;;;;;;31.85;22.99;100980.47;5107578;28;20516;-73
2022/07/06 14:47:06;;;;;;;0.90;0.43;;;;;;;31.31;23.46;100977.09;5086819;28;20404;-73
2022/07/06 14:49:32;;;;;;;1.17;0.40;;;;;;;30.97;23.89;100972.44;5084222;28;20774;-72
2022/07/06 14:51:57;;;;;;;0.40;0.40;;;;;;;31.36;23.24;100974.00;5091857;28;20429;-72
2022/07/06 14:54:23;;;;;;;0.77;0.60;;;;;;;31.98;22.79;100974.66;5088416;28;20412;-72
2022/07/06 14:56:49;;;;;;;1.80;0.40;;;;;;;32.34;22.53;100963.59;5075476;28;20404;-71
2022/07/06 14:59:14;;;;;;;0.73;0.40;;;;;;;32.61;22.07;100957.97;5086535;28;20462;-72
2022/07/06 15:01:39;;;;;;;2.30;0.70;;;;;;;32.83;22.17;100959.88;5058268;28;20493;-72
2022/07/06 15:04:05;;;;;;;1.80;0.50;;;;;;;33.09;21.82;100965.41;5093722;28;20386;-72
2022/07/06 15:06:30;;;;;;;1.92;0.50;;;;;;;32.75;21.88;100953.34;5085877;28;20425;-72
2022/07/06 15:08:55;;;;;;;2.40;0.60;;;;;;;32.51;22.39;100950.19;5078820;28;20399;-72
2022/07/06 15:11:20;;;;;;;1.53;0.60;;;;;;;32.07;21.92;100938.78;5073755;28;20778;-72
2022/07/06 15:13:46;;;;;;;3.77;0.63;;;;;;;31.56;22.79;100941.97;5052226;28;20544;-72
2022/07/06 15:16:11;;;;;;;2.50;0.47;;;;;;;31.12;22.80;100937.97;5064010;28;20757;-72
2022/07/06 15:18:36;;;;;;;0.43;0.40;;;;;;;30.79;23.34;100935.69;5082677;28;20412;-72
2022/07/06 15:21:02;;;;;;;2.10;0.65;;;;;;;30.44;24.19;100932.16;5089749;28;20408;-72
2022/07/06 15:23:27;;;;;;;1.80;0.80;;;;;;;30.72;23.69;100935.56;5079636;28;20894;-72
2022/07/06 15:25:53;;;;;;;1.30;0.50;;;;;;;30.99;23.81;100934.50;5079624;28;20504;-72
2022/07/06 15:28:19;;;;;;;1.13;0.43;;;;;;;30.94;23.79;100931.16;5077781;28;20404;-72
2022/07/06 15:30:45;;;;;;;1.33;0.40;;;;;;;30.91;23.48;100929.94;5074002;28;20959;-72
2022/07/06 15:33:10;;;;;;;0.80;0.55;;;;;;;30.92;23.74;100930.75;5070116;28;20482;-72
2022/07/06 15:35:35;;;;;;;2.07;0.47;;;;;;;30.88;23.13;100917.50;5092920;28;20417;-72
2022/07/06 15:38:00;;;;;;;1.13;0.40;;;;;;;30.95;23.19;100918.81;5075352;28;20797;-72
2022/07/06 15:40:27;;;;;;;2.13;0.47;;;;;;;30.79;23.88;100916.91;5073040;28;20442;-72
2022/07/06 15:42:56;;;;;;;0.90;0.60;;;;;;;30.92;24.06;100913.94;5072494;28;20413;-72
2022/07/06 15:45:24;;;;;;;0.77;0.40;;;;;;;30.80;24.27;100921.31;5087414;28;20479;-72
2022/07/06 15:47:50;;;;;;;1.20;0.50;;;;;;;30.61;24.23;100912.13;5074656;28;20438;-72
2022/07/06 15:50:18;;;;;;;0.50;0.50;;;;;;;30.25;24.23;100910.56;5085505;28;20425;-72
2022/07/06 15:52:43;;;;;;;1.13;0.73;;;;;;;29.92;24.24;100913.81;5059265;28;20408;-72
2022/07/06 15:55:08;;;;;;;0.57;0.57;;;;;;;29.82;24.35;100914.34;5092299;28;20880;-72
2022/07/06 15:57:33;;;;;;;1.97;0.50;;;;;;;29.47;24.25;100919.06;5095511;28;20756;-73
2022/07/06 15:59:59;;;;;;;4.80;0.60;;;;;;;29.16;24.76;100915.06;5083131;28;20393;-72
2022/07/06 16:02:24;;;;;;;0.67;0.67;;;;;;;28.88;25.09;100913.50;5082543;28;20411;-72
2022/07/06 16:04:50;;;;;;;2.60;0.70;;;;;;;28.61;25.09;100918.72;5074943;28;20409;-72
2022/07/06 16:07:15;;;;;;;0.60;0.60;;;;;;;28.61;25.58;100920.69;5092404;28;20781;-72
2022/07/06 16:09:40;;;;;;;1.10;0.50;;;;;;;28.56;25.73;100918.13;5079000;28;20803;-71
2022/07/06 16:12:08;;;;;;;0.70;0.43;;;;;;;28.61;26.03;100915.94;5080185;28;20403;-72
2022/07/06 16:14:33;;;;;;;5.13;0.80;;;;;;;28.60;25.79;100914.28;5075078;28;20411;-72
2022/07/06 16:16:58;;;;;;;2.78;0.65;;;;;;;28.47;25.75;100918.28;5085874;28;20402;-71
2022/07/06 16:19:24;;;;;;;1.10;0.70;;;;;;;28.44;25.97;100910.66;5088582;28;20521;-72
2022/07/06 16:21:49;;;;;;;1.55;0.70;;;;;;;28.44;26.10;100920.97;5091006;28;20412;-72
2022/07/06 16:24:14;;;;;;;1.20;0.53;;;;;;;28.35;25.92;100915.56;5075533;28;20404;-72
2022/07/06 16:26:41;;;;;;;0.67;0.60;;;;;;;28.21;26.49;100913.16;5075939;28;20417;-71
2022/07/06 16:29:06;;;;;;;1.40;0.60;;;;;;;28.11;26.48;100907.25;5079563;28;20501;-71
2022/07/06 16:31:31;;;;;;;1.20;0.70;;;;;;;28.06;26.76;100907.47;5092228;28;20806;-72
2022/07/06 16:33:57;;;;;;;2.23;0.90;;;;;;;28.12;26.85;100908.88;5073931;28;20906;-72
2022/07/06 16:36:22;;;;;;;1.20;0.60;;;;;;;28.10;26.42;100919.56;5073063;28;20433;-72
2022/07/06 16:38:47;;;;;;;0.90;0.70;;;;;;;27.93;26.54;100917.81;5078496;28;20965;-72
2022/07/06 16:41:13;;;;;;;1.53;0.50;;;;;;;27.74;26.90;100907.28;5085427;28;20453;-72
2022/07/06 16:43:38;;;;;;;1.40;0.50;;;;;;;27.71;26.83;100907.97;5074955;28;20502;-72
2022/07/06 16:46:03;;;;;;;1.50;0.67;;;;;;;27.77;27.28;100909.34;5089931;28;20399;-72
2022/07/06 16:48:29;;;;;;;1.03;0.57;;;;;;;27.75;27.01;100913.66;5086871;28;20849;-72
2022/07/06 16:50:55;;;;;;;2.63;0.65;;;;;;;27.68;27.33;100916.22;5081924;28;20394;-72
2022/07/06 16:53:21;;;;;;;1.40;0.60;;;;;;;27.64;27.57;100913.31;5066728;28;20411;-72
2022/07/06 16:55:46;;;;;;;0.50;0.50;;;;;;;27.68;27.77;100910.66;5088990;28;20446;-72
2022/07/06 16:58:11;;;;;;;1.77;0.80;;;;;;;27.61;27.79;100910.41;5087385;28;20411;-72
2022/07/06 17:00:37;;;;;;;0.90;0.67;;;;;;;27.67;27.93;100917.38;5080628;28;20414;-72
2022/07/06 17:03:03;;;;;;;0.60;0.50;;;;;;;27.61;27.97;100918.75;5070257;28;20406;-72
2022/07/06 17:05:28;;;;;;;1.03;0.50;;;;;;;27.51;27.74;100914.47;5087649;28;20757;-72
2022/07/06 17:07:53;;;;;;;1.13;0.70;;;;;;;27.47;28.07;100919.09;5079708;28;20761;-72
2022/07/06 17:10:19;;;;;;;0.50;0.50;;;;;;;27.37;27.92;100916.75;5075761;28;20402;-71
2022/07/06 17:12:44;;;;;;;0.80;0.50;;;;;;;27.17;27.58;100912.88;5083377;28;20409;-72
2022/07/06 17:15:09;;;;;;;0.73;0.60;;;;;;;27.09;27.91;100915.78;5052916;28;20411;-72
2022/07/06 17:17:35;;;;;;;0.80;0.53;;;;;;;26.97;28.14;100916.56;5083101;28;20427;-72
2022/07/06 17:20:00;;;;;;;0.65;0.50;;;;;;;26.95;28.11;100923.63;5091187;28;20407;-71
2022/07/06 17:22:26;;;;;;;1.40;0.50;;;;;;;26.81;27.93;100916.41;5076924;28;20404;-71
2022/07/06 17:24:51;;;;;;;1.87;0.77;;;;;;;26.65;28.12;100926.50;5083029;28;20401;-72
